SAS1209 EKCH-VTBS
Flight info
| Callsign | SAS1209 |
|---|---|
| Flight time | N/A |
| Altitude | 37000 |
| Route | SIMEG Z491 TELMO DCT KEKOV DCT POKEN DCT XELOL DCT LENOV DCT KENIN DCT REVDA DCT UDROS UM859 KARDE UN644 ROLIN N644 ODILI DCT BARAD M747 SUBUT T923 ERLEV/N0475F390 M11 RODAR A909 NINOP B801 RANAH L750 MERUN G452 LKN R460 BBN/N0484F410 P646 JJS Z12 DOPID P646 TARED DCT WILLA WILLA1C |
| Aircraft | A359/H-SABDE1E3FGHIJ1J2J3J4J5M1P2RWXYZ/LB2D1 |
Departure
| Time | 2026-04-24 13:02 |
|---|---|
| Airport | Copenhagen Kastrup Airport (EKCH) |
Arrival
| Time | N/A |
|---|---|
| Airport | Suvarnabhumi Airport (VTBS) |
| Time | Latitude | Longitude | Altitude | Speed | Heading |
|---|---|---|---|---|---|
| 2026-04-24 12:28 | 55.62573 | 12.65049 | 30 ft | 0 kts | 269° |
| 2026-04-24 12:29 | 55.62571 | 12.65040 | 30 ft | 0 kts | 276° |
| 2026-04-24 12:51 | 55.62571 | 12.65042 | 30 ft | 2 kts | 276° |
| 2026-04-24 12:51 | 55.62571 | 12.65087 | 29 ft | 4 kts | 263° |
| 2026-04-24 12:51 | 55.62573 | 12.65124 | 28 ft | 4 kts | 266° |
| 2026-04-24 12:52 | 55.62578 | 12.65168 | 28 ft | 4 kts | 229° |
| 2026-04-24 12:52 | 55.62597 | 12.65183 | 27 ft | 4 kts | 182° |
| 2026-04-24 12:52 | 55.62624 | 12.65184 | 28 ft | 4 kts | 180° |
| 2026-04-24 12:52 | 55.62632 | 12.65184 | 28 ft | 0 kts | 180° |
| 2026-04-24 12:55 | 55.62629 | 12.65184 | 30 ft | 2 kts | 180° |
| 2026-04-24 12:55 | 55.62595 | 12.65184 | 30 ft | 8 kts | 180° |
| 2026-04-24 12:55 | 55.62514 | 12.65183 | 30 ft | 15 kts | 180° |
| 2026-04-24 12:56 | 55.62436 | 12.65193 | 30 ft | 10 kts | 176° |
| 2026-04-24 12:56 | 55.62365 | 12.65203 | 30 ft | 11 kts | 177° |
| 2026-04-24 12:56 | 55.62286 | 12.65198 | 30 ft | 12 kts | 181° |
| 2026-04-24 12:56 | 55.62203 | 12.65166 | 29 ft | 12 kts | 211° |
| 2026-04-24 12:57 | 55.62127 | 12.65083 | 30 ft | 13 kts | 212° |
| 2026-04-24 12:57 | 55.62044 | 12.64988 | 30 ft | 15 kts | 213° |
| 2026-04-24 12:57 | 55.61941 | 12.64870 | 30 ft | 19 kts | 213° |
| 2026-04-24 12:57 | 55.61825 | 12.64737 | 30 ft | 20 kts | 213° |
| 2026-04-24 12:58 | 55.61704 | 12.64598 | 30 ft | 21 kts | 213° |
| 2026-04-24 12:58 | 55.61589 | 12.64465 | 30 ft | 20 kts | 213° |
| 2026-04-24 12:58 | 55.61472 | 12.64330 | 30 ft | 20 kts | 213° |
| 2026-04-24 12:58 | 55.61351 | 12.64192 | 30 ft | 21 kts | 212° |
| 2026-04-24 12:59 | 55.61226 | 12.64050 | 30 ft | 22 kts | 214° |
| 2026-04-24 12:59 | 55.61098 | 12.63900 | 30 ft | 22 kts | 213° |
| 2026-04-24 12:59 | 55.60965 | 12.63747 | 30 ft | 23 kts | 213° |
| 2026-04-24 12:59 | 55.60828 | 12.63591 | 30 ft | 24 kts | 212° |
| 2026-04-24 13:00 | 55.60690 | 12.63432 | 30 ft | 24 kts | 216° |
| 2026-04-24 13:00 | 55.60561 | 12.63248 | 30 ft | 23 kts | 222° |
| 2026-04-24 13:00 | 55.60455 | 12.63124 | 30 ft | 12 kts | 181° |
| 2026-04-24 13:00 | 55.60409 | 12.63161 | 30 ft | 5 kts | 140° |
| 2026-04-24 13:01 | 55.60377 | 12.63216 | 30 ft | 9 kts | 133° |
| 2026-04-24 13:01 | 55.60346 | 12.63339 | 32 ft | 10 kts | 96° |
| 2026-04-24 13:01 | 55.60369 | 12.63407 | 32 ft | 6 kts | 33° |
| 2026-04-24 13:01 | 55.60450 | 12.63519 | 30 ft | 29 kts | 40° |
| 2026-04-24 13:02 | 55.60751 | 12.63982 | 32 ft | 87 kts | 41° |
| 2026-04-24 13:02 | 55.61345 | 12.64894 | 31 ft | 138 kts | 41° |
| 2026-04-24 13:02 | 55.62175 | 12.66161 | 208 ft | 168 kts | 39° |
| 2026-04-24 13:02 | 55.63043 | 12.67513 | 839 ft | 161 kts | 37° |
| 2026-04-24 13:03 | 55.63884 | 12.68843 | 1304 ft | 168 kts | 34° |
| 2026-04-24 13:03 | 55.64821 | 12.70283 | 1427 ft | 190 kts | 36° |
| 2026-04-24 13:03 | 55.65871 | 12.71872 | 1623 ft | 208 kts | 35° |
| 2026-04-24 13:03 | 55.66996 | 12.73547 | 2148 ft | 210 kts | 34° |
| 2026-04-24 13:04 | 55.68116 | 12.75216 | 2771 ft | 211 kts | 35° |
| 2026-04-24 13:04 | 55.69244 | 12.76901 | 3360 ft | 212 kts | 35° |
| 2026-04-24 13:04 | 55.70375 | 12.78592 | 3924 ft | 214 kts | 35° |
| 2026-04-24 13:04 | 55.71491 | 12.80366 | 4449 ft | 218 kts | 42° |
| 2026-04-24 13:05 | 55.72307 | 12.82666 | 4983 ft | 227 kts | 65° |
| 2026-04-24 13:05 | 55.72494 | 12.85532 | 5293 ft | 248 kts | 93° |
| 2026-04-24 13:05 | 55.71792 | 12.88460 | 5449 ft | 274 kts | 127° |
| 2026-04-24 13:05 | 55.70196 | 12.90417 | 5756 ft | 287 kts | 162° |
| 2026-04-24 13:06 | 55.68221 | 12.90649 | 6239 ft | 288 kts | 190° |
| 2026-04-24 13:06 | 55.66254 | 12.90144 | 6763 ft | 292 kts | 186° |
| 2026-04-24 13:06 | 55.64233 | 12.90642 | 7240 ft | 297 kts | 164° |
| 2026-04-24 13:06 | 55.62237 | 12.91655 | 7746 ft | 299 kts | 171° |
| 2026-04-24 13:07 | 55.60183 | 12.91524 | 8205 ft | 296 kts | 200° |
| 2026-04-24 13:07 | 55.58436 | 12.89756 | 8713 ft | 288 kts | 226° |
| 2026-04-24 13:07 | 55.57011 | 12.87279 | 9272 ft | 288 kts | 231° |
| 2026-04-24 13:07 | 55.55630 | 12.84702 | 9841 ft | 289 kts | 231° |
| 2026-04-24 13:08 | 55.54235 | 12.82111 | 10266 ft | 295 kts | 231° |
| 2026-04-24 13:08 | 55.52721 | 12.79527 | 10465 ft | 312 kts | 222° |
| 2026-04-24 13:08 | 55.50707 | 12.77790 | 10625 ft | 336 kts | 196° |
| 2026-04-24 13:09 | 55.45823 | 12.78210 | 11011 ft | 367 kts | 174° |
| 2026-04-24 13:09 | 55.43253 | 12.78844 | 11245 ft | 377 kts | 174° |
| 2026-04-24 13:09 | 55.40631 | 12.79463 | 11601 ft | 383 kts | 175° |
| 2026-04-24 13:09 | 55.37986 | 12.80193 | 12014 ft | 388 kts | 168° |
| 2026-04-24 13:10 | 55.35476 | 12.81983 | 12401 ft | 394 kts | 148° |
| 2026-04-24 13:10 | 55.33452 | 12.85219 | 12844 ft | 396 kts | 126° |
| 2026-04-24 13:10 | 55.32215 | 12.89425 | 13246 ft | 394 kts | 105° |
| 2026-04-24 13:10 | 55.31569 | 12.94161 | 13659 ft | 395 kts | 98° |
| 2026-04-24 13:11 | 55.31051 | 12.98850 | 14037 ft | 398 kts | 98° |
| 2026-04-24 13:11 | 55.30519 | 13.03634 | 14409 ft | 400 kts | 98° |
| 2026-04-24 13:11 | 55.29971 | 13.08447 | 14782 ft | 403 kts | 98° |
| 2026-04-24 13:11 | 55.29411 | 13.13274 | 15152 ft | 405 kts | 99° |
| 2026-04-24 13:12 | 55.28840 | 13.18136 | 15520 ft | 408 kts | 99° |
| 2026-04-24 13:12 | 55.28261 | 13.23028 | 15913 ft | 410 kts | 99° |
| 2026-04-24 13:12 | 55.27677 | 13.27936 | 16294 ft | 412 kts | 99° |
| 2026-04-24 13:12 | 55.27086 | 13.32877 | 16672 ft | 415 kts | 99° |
| 2026-04-24 13:13 | 55.26490 | 13.37840 | 17090 ft | 417 kts | 99° |
| 2026-04-24 13:13 | 55.25890 | 13.42816 | 17517 ft | 418 kts | 99° |
| 2026-04-24 13:13 | 55.25257 | 13.47805 | 17879 ft | 421 kts | 103° |
| 2026-04-24 13:13 | 55.24250 | 13.52664 | 18237 ft | 426 kts | 112° |